Time;durP1;ratioP1;P1;durP2;ratioP2;P2;SDS_P1;SDS_P2;PMS_P1;PMS_P2;Temp;Humidity;BMP_temperature;BMP_pressure;BME280_temperature;BME280_humidity;BME280_pressure;Samples;Min_cycle;Max_cycle;Signal;HPM_P1;HPM_P2
2021/01/06 00:00:30;;;;;;;10.30;3.60;;;4.40;99.90;;;5.10;92.50;100893.97;5081201;28;20605;-74
2021/01/06 00:02:57;;;;;;;12.63;4.38;;;4.40;99.90;;;5.10;92.53;100893.97;5082335;28;20212;-74
2021/01/06 00:05:26;;;;;;;10.90;3.55;;;4.40;99.90;;;5.08;92.38;100903.50;5080842;28;20196;-74
2021/01/06 00:07:53;;;;;;;11.13;3.25;;;4.30;99.90;;;5.03;92.56;100889.72;5081323;28;20255;-74
2021/01/06 00:10:24;;;;;;;9.73;3.22;;;4.30;99.90;;;5.01;92.67;100894.06;5083362;28;20680;-74
2021/01/06 00:12:51;;;;;;;9.27;3.53;;;4.30;99.90;;;5.03;92.57;100899.22;5084123;28;20226;-74
2021/01/06 00:15:22;;;;;;;12.30;3.80;;;4.30;99.90;;;5.04;92.65;100907.00;5080395;28;20196;-74
2021/01/06 00:17:49;;;;;;;10.15;3.55;;;4.30;99.90;;;5.02;92.62;100894.94;5082535;28;20192;-74
2021/01/06 00:20:17;;;;;;;10.97;3.70;;;4.30;99.90;;;5.02;92.81;100889.75;5080987;28;20226;-74
2021/01/06 00:22:44;;;;;;;9.25;3.28;;;4.40;99.90;;;5.08;92.69;100894.84;5086235;28;20227;-74
2021/01/06 00:25:19;;;;;;;10.05;3.75;;;4.40;99.90;;;5.08;92.63;100892.25;5085397;28;20180;-74
2021/01/06 00:27:45;;;;;;;10.65;3.72;;;4.40;99.90;;;5.04;92.87;100890.56;5081251;28;20200;-74
2021/01/06 00:30:20;;;;;;;10.32;3.63;;;4.40;99.90;;;5.05;92.93;100887.97;5077904;28;20211;-74
2021/01/06 00:32:46;;;;;;;10.18;3.28;;;4.40;99.90;;;5.05;93.04;100887.13;5087257;28;20235;-74
2021/01/06 00:35:14;;;;;;;9.55;3.17;;;4.40;99.90;;;5.04;93.05;100888.84;5082605;28;20195;-74
2021/01/06 00:37:40;;;;;;;10.65;3.17;;;4.40;99.90;;;5.03;93.51;100881.09;5083624;28;20195;-73
2021/01/06 00:40:08;;;;;;;11.27;3.70;;;4.40;99.90;;;5.09;93.14;100881.84;5084229;28;20187;-74
2021/01/06 00:42:36;;;;;;;9.25;3.03;;;4.30;99.90;;;5.11;92.96;100887.03;5080783;28;20204;-74
2021/01/06 00:45:04;;;;;;;9.53;3.27;;;4.30;99.90;;;5.09;93.08;100876.66;5084207;28;20214;-73
2021/01/06 00:47:31;;;;;;;10.48;3.88;;;4.30;99.90;;;5.10;93.01;100886.19;5080251;28;20198;-73
2021/01/06 00:49:57;;;;;;;12.70;3.58;;;4.30;99.90;;;5.09;92.96;100871.47;5083463;28;20224;-74
2021/01/06 00:52:24;;;;;;;9.80;3.40;;;4.40;99.90;;;5.10;93.17;100885.31;5082536;28;20318;-74
2021/01/06 00:54:51;;;;;;;10.15;3.47;;;4.40;99.90;;;5.10;93.27;100881.00;5087504;28;20188;-75
2021/01/06 00:57:18;;;;;;;10.95;3.92;;;4.40;99.90;;;5.09;93.22;100876.66;5076515;28;20192;-74
2021/01/06 00:59:45;;;;;;;11.05;3.33;;;4.40;99.90;;;5.11;93.06;100882.69;5081304;28;20196;-74
2021/01/06 01:02:12;;;;;;;11.48;3.63;;;4.40;99.90;;;5.11;93.23;100879.25;5086632;28;20461;-74
2021/01/06 01:04:40;;;;;;;9.25;2.90;;;4.40;99.90;;;5.05;93.20;100874.16;5089154;28;20256;-74
2021/01/06 01:07:07;;;;;;;9.00;3.10;;;4.40;99.90;;;5.06;92.93;100873.25;5087942;28;20226;-74
2021/01/06 01:09:34;;;;;;;8.85;2.83;;;4.30;99.90;;;5.04;93.30;100878.47;5101116;28;20248;-74
2021/01/06 01:12:00;;;;;;;9.10;2.80;;;4.40;99.90;;;5.02;93.18;100872.44;5080525;28;20234;-74
2021/01/06 01:14:26;;;;;;;8.48;2.80;;;4.30;99.90;;;5.03;93.28;100868.97;5082047;28;20278;-74
2021/01/06 01:16:52;;;;;;;7.60;2.58;;;4.30;99.90;;;5.04;93.24;100868.09;5083030;28;20201;-74
2021/01/06 01:19:19;;;;;;;7.55;2.25;;;4.30;99.90;;;5.05;92.81;100864.66;5083902;28;20196;-74
2021/01/06 01:21:45;;;;;;;8.90;2.47;;;4.30;99.90;;;5.03;92.84;100868.13;5086091;28;20238;-75
2021/01/06 01:24:11;;;;;;;9.20;2.00;;;4.20;99.90;;;4.97;92.47;100860.44;5086593;28;20188;-74
2021/01/06 01:26:39;;;;;;;8.10;2.38;;;4.20;99.90;;;4.92;92.64;100851.84;5082152;28;20189;-74
2021/01/06 01:29:06;;;;;;;8.57;2.50;;;4.20;99.90;;;4.93;92.74;100850.97;5077757;28;20192;-75
2021/01/06 01:31:33;;;;;;;9.35;2.65;;;4.20;99.90;;;4.92;92.95;100844.91;5080506;28;20214;-75
2021/01/06 01:33:59;;;;;;;8.70;2.33;;;4.20;99.90;;;4.91;92.64;100847.53;5081423;28;20242;-73
2021/01/06 01:36:26;;;;;;;5.57;1.90;;;4.10;99.90;;;4.91;92.44;100842.34;5073818;28;20193;-74
2021/01/06 01:38:53;;;;;;;7.23;2.20;;;4.10;99.90;;;4.90;92.85;100841.50;5093745;28;20196;-74
2021/01/06 01:41:23;;;;;;;7.40;2.20;;;4.10;99.90;;;4.92;93.06;100841.47;5074037;28;20196;-74
2021/01/06 01:43:51;;;;;;;6.63;2.20;;;4.10;99.90;;;4.92;92.84;100844.91;5078037;28;20207;-74
2021/01/06 01:47:02;;;;;;;6.72;2.00;;;4.10;99.90;;;4.87;92.65;100825.13;5076249;28;20208;-75
2021/01/06 01:49:39;;;;;;;7.40;2.20;;;4.10;99.90;;;4.91;92.95;100822.47;5077133;28;20222;-75
2021/01/06 01:52:19;;;;;;;8.20;2.63;;;4.10;99.90;;;4.88;93.20;100827.69;5076524;28;20215;-75
2021/01/06 01:54:46;;;;;;;7.80;2.53;;;4.10;99.90;;;4.87;93.29;100818.19;5076232;28;20202;-75
2021/01/06 01:57:17;;;;;;;8.90;2.22;;;4.10;99.90;;;4.87;93.30;100818.19;5067496;28;20658;-75
2021/01/06 01:59:52;;;;;;;8.15;2.80;;;4.10;99.90;;;4.89;93.22;100824.22;5071004;28;20192;-74
2021/01/06 02:02:37;;;;;;;7.45;2.47;;;4.20;99.90;;;4.89;93.94;100821.63;5077503;28;20238;-74
2021/01/06 02:05:09;;;;;;;9.18;2.22;;;4.10;99.90;;;4.87;93.79;100822.53;5072310;28;20192;-75
2021/01/06 02:07:45;;;;;;;8.48;2.42;;;4.10;99.90;;;4.87;94.17;100820.78;5079780;28;20304;-74
2021/01/06 02:10:18;;;;;;;9.32;2.45;;;4.10;99.90;;;4.86;94.10;100815.63;5069234;28;20256;-74
2021/01/06 02:12:50;;;;;;;7.70;2.00;;;4.10;99.90;;;4.85;94.17;100822.56;5076877;28;20242;-74
2021/01/06 02:15:34;;;;;;;5.85;1.90;;;4.10;99.90;;;4.83;94.18;100819.13;5078251;28;20196;-75
2021/01/06 02:18:00;;;;;;;7.07;2.13;;;4.10;99.90;;;4.80;94.15;100815.72;5077119;28;20200;-75
2021/01/06 02:20:28;;;;;;;6.50;1.88;;;4.00;99.90;;;4.80;94.16;100819.16;5078730;28;20691;-74
2021/01/06 02:22:56;;;;;;;6.38;1.60;;;4.00;99.90;;;4.74;94.13;100808.88;5074336;28;20645;-74
2021/01/06 02:25:27;;;;;;;5.80;1.90;;;4.00;99.90;;;4.74;94.18;100810.59;5081067;28;20201;-74
2021/01/06 02:27:56;;;;;;;6.85;2.00;;;4.00;99.90;;;4.69;93.88;100810.66;5061638;28;20550;-75
2021/01/06 02:30:24;;;;;;;5.43;1.80;;;4.00;99.90;;;4.76;94.27;100811.44;5069336;28;20218;-74
2021/01/06 02:32:51;;;;;;;6.57;1.92;;;4.00;99.90;;;4.79;94.35;100796.69;5072266;28;20251;-74
2021/01/06 02:35:19;;;;;;;7.85;2.70;;;4.00;99.90;;;4.76;94.32;100798.47;5079182;28;20200;-75
2021/01/06 02:37:47;;;;;;;6.93;2.07;;;4.00;99.90;;;4.74;94.11;100787.25;5073694;28;20196;-74
2021/01/06 02:40:16;;;;;;;5.70;1.83;;;4.00;99.90;;;4.75;94.31;100783.81;5079613;28;20329;-74
2021/01/06 02:42:43;;;;;;;5.93;1.73;;;4.00;99.90;;;4.74;94.33;100787.25;5078293;28;20212;-75
2021/01/06 02:45:15;;;;;;;6.22;1.60;;;4.00;99.90;;;4.72;94.66;100782.09;5069463;28;20196;-75
2021/01/06 02:47:47;;;;;;;7.65;1.95;;;4.00;99.90;;;4.76;94.58;100785.50;5069093;28;20201;-74
2021/01/06 02:50:17;;;;;;;6.53;1.80;;;4.00;99.90;;;4.73;94.36;100780.38;5078839;28;20200;-74
2021/01/06 02:52:50;;;;;;;5.32;1.80;;;4.00;99.90;;;4.72;94.15;100782.09;5076571;28;20234;-75
2021/01/06 02:55:18;;;;;;;5.68;1.70;;;3.90;99.90;;;4.65;94.48;100777.03;5070424;28;20252;-74
2021/01/06 02:57:47;;;;;;;12.00;1.95;;;3.90;99.90;;;4.64;94.31;100776.16;5075174;28;20226;-74
2021/01/06 03:00:20;;;;;;;4.00;1.30;;;3.90;99.90;;;4.64;94.32;100773.56;5069982;28;20197;-74
2021/01/06 03:02:48;;;;;;;5.93;1.50;;;3.90;99.90;;;4.62;94.40;100777.91;5067503;28;20212;-74
2021/01/06 03:05:21;;;;;;;6.03;1.77;;;3.90;99.90;;;4.63;94.31;100763.25;5076947;28;20184;-74
2021/01/06 03:07:49;;;;;;;4.38;1.20;;;3.90;99.90;;;4.59;94.36;100771.91;5069905;28;20708;-74
2021/01/06 03:10:19;;;;;;;4.72;1.48;;;3.80;99.90;;;4.55;94.19;100770.25;5070061;28;20191;-74
2021/01/06 03:12:51;;;;;;;5.18;1.58;;;3.80;99.90;;;4.52;94.59;100755.59;5078415;28;20595;-74
2021/01/06 03:15:22;;;;;;;4.40;1.42;;;3.80;99.90;;;4.52;94.63;100762.53;5076168;28;20191;-75
2021/01/06 03:17:49;;;;;;;7.53;1.58;;;3.80;99.90;;;4.48;94.54;100748.75;5069746;28;20202;-74
2021/01/06 03:20:23;;;;;;;8.82;1.67;;;3.80;99.90;;;4.50;94.61;100747.00;5076425;28;20188;-74
2021/01/06 03:22:57;;;;;;;6.13;1.50;;;3.80;99.90;;;4.55;94.71;100750.41;5070960;28;20215;-74
2021/01/06 03:25:25;;;;;;;5.90;1.50;;;3.80;99.90;;;4.54;94.82;100748.66;5076964;28;20739;-74
2021/01/06 03:27:54;;;;;;;5.50;1.45;;;3.80;99.90;;;4.54;94.53;100752.97;5060290;28;20188;-74
2021/01/06 03:30:27;;;;;;;5.90;1.60;;;3.80;99.90;;;4.49;94.75;100741.81;5069296;28;20192;-72
2021/01/06 03:33:09;;;;;;;4.20;1.30;;;3.70;99.90;;;4.51;94.82;100745.25;5070716;28;20216;-74
2021/01/06 03:35:41;;;;;;;5.88;1.42;;;3.70;99.90;;;4.48;94.95;100740.97;5073490;28;20196;-74
2021/01/06 03:38:22;;;;;;;4.03;1.20;;;3.70;99.90;;;4.47;94.88;100741.84;5071079;28;20271;-74
2021/01/06 03:40:53;;;;;;;3.93;1.20;;;3.70;99.90;;;4.41;95.00;100741.06;5078929;28;20194;-74
2021/01/06 03:43:20;;;;;;;6.05;1.45;;;3.70;99.90;;;4.43;95.35;100737.59;5068381;28;20726;-74
2021/01/06 03:45:52;;;;;;;4.88;1.38;;;3.70;99.90;;;4.51;95.37;100738.34;5077160;28;20233;-74
2021/01/06 03:48:26;;;;;;;3.75;1.10;;;3.70;99.90;;;4.52;95.41;100729.69;5079583;28;20192;-74
2021/01/06 03:51:01;;;;;;;5.22;1.20;;;3.70;99.90;;;4.48;95.16;100728.03;5071579;28;20699;-74
2021/01/06 03:53:35;;;;;;;4.87;1.23;;;3.70;99.90;;;4.42;95.41;100724.66;5079367;28;20203;-74
2021/01/06 03:56:06;;;;;;;4.25;1.13;;;3.70;99.90;;;4.42;95.71;100733.28;5075145;28;20203;-74
2021/01/06 03:58:45;;;;;;;4.28;1.30;;;3.70;99.90;;;4.44;95.71;100731.53;5071055;28;20685;-74
2021/01/06 04:01:36;;;;;;;3.93;1.27;;;3.70;99.90;;;4.41;95.81;100728.13;5074389;28;20294;-74
2021/01/06 04:04:16;;;;;;;4.35;1.48;;;3.70;99.90;;;4.36;95.83;100727.31;5079695;28;20196;-74
2021/01/06 04:06:47;;;;;;;5.45;1.02;;;3.60;99.90;;;4.29;95.72;100713.59;5070933;28;20806;-74
2021/01/06 04:09:23;;;;;;;3.80;1.05;;;3.60;99.90;;;4.31;96.23;100714.44;5077073;28;20650;-74
2021/01/06 04:12:04;;;;;;;3.00;1.10;;;3.60;99.90;;;4.30;96.19;100717.91;5076965;28;20215;-74
2021/01/06 04:14:31;;;;;;;4.60;1.10;;;3.60;99.90;;;4.29;96.40;100715.31;5077107;28;20725;-73
2021/01/06 04:17:13;;;;;;;3.53;1.20;;;3.60;99.90;;;4.28;96.58;100711.03;5072873;28;20201;-74
2021/01/06 04:19:44;;;;;;;5.80;1.27;;;3.60;99.90;;;4.31;96.62;100714.44;5079226;28;20219;-74
2021/01/06 04:22:10;;;;;;;2.85;1.00;;;3.60;99.90;;;4.26;96.44;100708.44;5095705;28;20215;-74
2021/01/06 04:24:36;;;;;;;3.60;1.10;;;3.50;99.90;;;4.22;96.51;100708.53;5069696;28;20196;-73
2021/01/06 04:27:04;;;;;;;3.70;1.10;;;3.50;99.90;;;4.21;96.54;100707.66;5070395;28;20204;-74
2021/01/06 04:29:31;;;;;;;3.28;0.90;;;3.50;99.90;;;4.21;96.80;100707.66;5070345;28;20197;-74
2021/01/06 04:31:57;;;;;;;3.33;1.03;;;3.50;99.90;;;4.18;96.48;100702.53;5077486;28;20676;-74
2021/01/06 04:34:23;;;;;;;3.73;0.90;;;3.50;99.90;;;4.19;96.54;100706.81;5074041;28;20653;-74
2021/01/06 04:36:49;;;;;;;3.37;0.83;;;3.40;99.90;;;4.19;96.92;100713.72;5067675;28;20596;-74
2021/01/06 04:39:16;;;;;;;2.30;0.70;;;3.40;99.90;;;4.20;96.94;100708.53;5092827;28;20199;-74
2021/01/06 04:41:54;;;;;;;1.70;0.63;;;3.50;99.90;;;4.26;97.23;100705.88;5072648;28;20217;-74
2021/01/06 04:44:57;;;;;;;2.30;0.67;;;3.50;99.90;;;4.24;96.95;100707.59;5073322;28;20208;-74
2021/01/06 04:48:11;;;;;;;1.50;0.70;;;3.50;99.90;;;4.21;97.20;100701.59;5077364;28;20278;-74
2021/01/06 04:51:08;;;;;;;2.17;0.70;;;3.50;99.90;;;4.12;97.07;100697.41;5070260;28;20202;-74
2021/01/06 04:53:54;;;;;;;1.30;0.50;;;3.40;99.90;;;4.04;97.05;100699.22;5074481;28;20212;-74
2021/01/06 04:56:50;;;;;;;5.60;0.70;;;3.40;99.90;;;4.06;97.45;100696.63;5070794;28;20215;-74
2021/01/06 04:59:39;;;;;;;2.77;0.73;;;3.40;99.90;;;4.06;97.62;100700.06;5068844;28;20207;-74
2021/01/06 05:02:44;;;;;;;1.50;0.40;;;3.40;99.90;;;4.04;97.43;100703.53;5076162;28;20215;-74
2021/01/06 05:05:49;;;;;;;3.00;0.80;;;3.30;99.90;;;4.01;97.60;100698.41;5075112;28;20598;-74
2021/01/06 05:08:27;;;;;;;0.80;0.32;;;3.30;99.90;;;4.02;97.56;100706.13;5072003;28;20998;-74
2021/01/06 05:11:02;;;;;;;1.55;0.60;;;3.30;99.90;;;3.98;97.37;100704.47;5075198;28;20200;-74
2021/01/06 05:13:40;;;;;;;2.43;0.70;;;3.30;99.90;;;3.99;97.78;100707.91;5076178;28;20219;-74
2021/01/06 05:16:13;;;;;;;1.80;0.63;;;3.30;99.90;;;4.00;97.60;100700.16;5072664;28;20196;-72
2021/01/06 05:18:42;;;;;;;3.23;0.80;;;3.30;99.90;;;3.97;97.60;100699.31;5074211;28;20184;-74
2021/01/06 05:21:16;;;;;;;1.60;0.70;;;3.30;99.90;;;3.90;97.66;100687.31;5074700;28;20216;-74
2021/01/06 05:23:45;;;;;;;4.18;0.90;;;3.20;99.90;;;3.92;97.79;100689.00;5079930;28;20305;-74
2021/01/06 05:26:12;;;;;;;5.30;1.20;;;3.30;99.90;;;3.91;98.01;100689.88;5071235;28;20197;-74
2021/01/06 05:28:38;;;;;;;3.17;0.90;;;3.20;99.90;;;3.92;97.95;100699.34;5069956;28;20214;-74
2021/01/06 05:31:04;;;;;;;2.80;0.67;;;3.20;99.90;;;3.89;98.10;100686.44;5074553;28;20191;-74
2021/01/06 05:33:35;;;;;;;5.33;1.10;;;3.20;99.90;;;3.87;97.88;100695.97;5074978;28;20215;-74
2021/01/06 05:36:03;;;;;;;2.47;0.90;;;3.20;99.90;;;3.88;98.19;100693.34;5078455;28;20202;-74
2021/01/06 05:38:29;;;;;;;2.00;0.67;;;3.20;99.90;;;3.88;98.11;100687.34;5072715;28;20195;-74
2021/01/06 05:40:56;;;;;;;3.37;1.00;;;3.20;99.90;;;3.85;97.82;100692.56;5073485;28;20229;-74
2021/01/06 05:43:42;;;;;;;5.28;1.25;;;3.20;99.90;;;3.83;98.31;100689.97;5073878;28;20223;-75
2021/01/06 05:46:20;;;;;;;5.13;1.03;;;3.20;99.90;;;3.85;98.50;100700.31;5072668;28;20192;-74
2021/01/06 05:48:54;;;;;;;3.17;1.20;;;3.20;99.90;;;3.84;98.15;100688.22;5074134;28;20203;-74
2021/01/06 05:51:31;;;;;;;1.60;0.60;;;3.10;99.90;;;3.78;98.40;100688.31;5076072;28;20260;-74
2021/01/06 05:54:01;;;;;;;7.83;1.20;;;3.20;99.90;;;3.75;98.30;100683.19;5077197;28;20230;-74
2021/01/06 05:56:53;;;;;;;1.05;0.70;;;3.10;99.90;;;3.72;98.52;100685.78;5074460;28;20192;-74
2021/01/06 05:59:54;;;;;;;2.17;0.80;;;3.10;99.90;;;3.70;98.62;100683.22;5066545;28;20196;-74
2021/01/06 06:02:31;;;;;;;1.73;0.77;;;3.10;99.90;;;3.71;98.61;100684.06;5067221;28;20247;-74
2021/01/06 06:05:28;;;;;;;1.13;0.50;;;3.10;99.90;;;3.73;98.97;100678.00;5071432;28;20192;-74
2021/01/06 06:08:16;;;;;;;2.80;0.63;;;3.10;99.90;;;3.67;98.85;100688.41;5074937;28;20200;-74
2021/01/06 06:11:09;;;;;;;2.67;0.97;;;3.10;99.90;;;3.62;98.87;100682.44;5071820;28;20252;-74
2021/01/06 06:14:04;;;;;;;1.57;0.73;;;3.00;99.90;;;3.59;98.88;100682.47;5075123;28;20216;-74
2021/01/06 06:16:47;;;;;;;1.97;0.60;;;3.00;99.90;;;3.61;99.11;100679.88;5073766;28;20192;-74
2021/01/06 06:19:32;;;;;;;2.57;0.80;;;3.00;99.90;;;3.62;98.92;100684.16;5071989;28;20208;-74
2021/01/06 06:22:13;;;;;;;2.47;0.77;;;3.00;99.90;;;3.59;99.03;100679.88;5075001;28;20250;-74
2021/01/06 06:24:53;;;;;;;2.30;0.77;;;3.00;99.90;;;3.62;99.16;100673.81;5070859;28;20218;-74
2021/01/06 06:27:52;;;;;;;2.07;0.73;;;3.00;99.90;;;3.61;99.07;100666.94;5069673;28;20203;-74
2021/01/06 06:30:35;;;;;;;1.00;0.50;;;3.00;99.90;;;3.56;99.07;100673.88;5063066;28;20195;-74
2021/01/06 06:33:12;;;;;;;2.10;0.75;;;3.00;99.90;;;3.55;99.15;100677.34;5074819;28;20211;-74
2021/01/06 06:35:39;;;;;;;3.47;1.07;;;3.00;99.90;;;3.54;99.09;100675.63;5074223;28;20199;-75
2021/01/06 06:38:09;;;;;;;4.00;1.00;;;3.00;99.90;;;3.56;99.03;100663.53;5068243;28;20196;-74
2021/01/06 06:41:00;;;;;;;2.80;0.90;;;3.00;99.90;;;3.58;99.19;100677.31;5073139;28;22082;-74
2021/01/06 06:43:36;;;;;;;2.38;1.00;;;3.00;99.90;;;3.58;99.32;100672.97;5069296;28;20212;-74
2021/01/06 06:46:20;;;;;;;4.78;1.17;;;3.00;99.90;;;3.58;99.16;100677.31;5069916;28;20192;-73
2021/01/06 06:49:18;;;;;;;5.43;1.73;;;2.90;99.90;;;3.59;99.21;100664.38;5066830;28;20208;-74
2021/01/06 06:51:55;;;;;;;4.20;1.20;;;2.90;99.90;;;3.58;99.02;100677.31;5064865;28;20305;-74
2021/01/06 06:54:38;;;;;;;5.00;1.30;;;2.90;99.90;;;3.50;98.90;100664.44;5062263;28;20196;-77
2021/01/06 06:57:20;;;;;;;6.07;1.20;;;2.90;99.90;;;3.46;98.88;100664.50;5066377;28;20294;-75
2021/01/06 07:00:13;;;;;;;5.80;1.95;;;2.90;99.90;;;3.45;99.38;100670.56;5081607;28;20212;-74
2021/01/06 07:02:50;;;;;;;5.83;1.53;;;2.80;99.90;;;3.42;99.29;100667.97;5066387;28;20773;-75
2021/01/06 07:05:29;;;;;;;3.25;1.20;;;2.90;99.90;;;3.42;99.40;100670.56;5066139;28;20208;-75
2021/01/06 07:08:01;;;;;;;12.57;2.70;;;2.80;99.90;;;3.46;99.35;100672.25;5063064;28;20558;-75
2021/01/06 07:10:32;;;;;;;4.22;1.27;;;2.80;99.90;;;3.46;99.98;100672.25;5061917;28;20204;-74
2021/01/06 07:13:07;;;;;;;6.83;1.50;;;2.80;99.90;;;3.43;99.66;100672.28;5069781;28;20204;-74
2021/01/06 07:15:40;;;;;;;5.87;1.60;;;2.80;99.90;;;3.41;99.30;100679.22;5068099;28;20664;-77
2021/01/06 07:18:35;;;;;;;4.53;1.30;;;2.80;99.90;;;3.42;99.44;100675.72;5061565;28;20192;-73
2021/01/06 07:21:28;;;;;;;25.53;9.23;;;2.80;99.90;;;3.33;99.34;100675.84;5065021;28;20195;-75
2021/01/06 07:24:11;;;;;;;9.20;2.73;;;2.70;99.90;;;3.25;99.42;100683.66;5066680;28;20204;-74
2021/01/06 07:26:41;;;;;;;9.97;3.53;;;2.70;99.90;;;3.21;99.25;100681.97;5060334;28;20196;-74
2021/01/06 07:29:13;;;;;;;5.07;1.57;;;2.70;99.90;;;3.14;99.21;100680.31;5064295;28;20188;-74
2021/01/06 07:31:48;;;;;;;5.83;1.67;;;2.60;99.90;;;3.12;99.46;100686.34;5064056;28;20601;-75
2021/01/06 07:34:23;;;;;;;5.03;1.53;;;2.60;99.90;;;3.14;99.63;100680.31;5068766;28;20207;-74
2021/01/06 07:36:54;;;;;;;8.00;3.13;;;2.60;99.90;;;3.14;99.75;100687.19;5066581;28;20196;-75
2021/01/06 07:39:28;;;;;;;6.10;1.37;;;2.60;99.90;;;3.13;99.79;100677.75;5064236;28;20192;-74
2021/01/06 07:41:55;;;;;;;3.33;0.97;;;2.60;99.90;;;3.12;99.68;100681.19;5069131;28;20346;-75
2021/01/06 07:44:29;;;;;;;5.97;1.43;;;2.60;99.90;;;3.15;100.00;100681.19;5068780;28;20188;-74
2021/01/06 07:47:15;;;;;;;3.53;1.20;;;2.60;99.90;;;3.15;99.69;100676.00;5066262;28;20203;-78
2021/01/06 07:49:51;;;;;;;3.73;1.20;;;2.60;99.90;;;3.15;99.82;100681.19;5065540;28;20671;-73
2021/01/06 07:52:45;;;;;;;3.37;1.10;;;2.60;99.90;;;3.16;99.76;100673.41;5064090;28;20260;-75
2021/01/06 07:55:33;;;;;;;3.23;1.20;;;2.60;99.90;;;3.16;99.82;100675.13;5079143;28;20283;-75
2021/01/06 07:58:06;;;;;;;3.83;1.07;;;2.60;99.90;;;3.17;99.83;100682.00;5069516;28;20215;-77
2021/01/06 08:00:39;;;;;;;1.83;1.10;;;2.60;99.90;;;3.19;100.00;100682.84;5068185;28;20192;-76
2021/01/06 08:03:25;;;;;;;2.80;1.20;;;2.70;99.90;;;3.19;99.80;100680.25;5067053;28;20231;-72
2021/01/06 08:05:59;;;;;;;3.67;1.23;;;2.60;99.90;;;3.17;99.68;100676.81;5063904;28;20669;-74
2021/01/06 08:08:28;;;;;;;2.60;1.00;;;2.60;99.90;;;3.20;99.68;100671.66;5062363;28;20934;-73
2021/01/06 08:11:06;;;;;;;2.57;0.87;;;2.70;99.90;;;3.11;99.64;100674.31;5066153;28;20192;-75
2021/01/06 08:13:36;;;;;;;2.03;1.00;;;2.60;99.90;;;3.05;99.50;100669.19;5069535;28;20227;-74
2021/01/06 08:16:19;;;;;;;3.73;1.13;;;2.60;99.90;;;3.08;99.73;100675.16;5071952;28;20205;-74
2021/01/06 08:19:09;;;;;;;4.00;1.30;;;2.60;99.90;;;3.11;99.84;100674.31;5070819;28;20204;-75
2021/01/06 08:21:50;;;;;;;3.83;1.10;;;2.60;99.90;;;3.13;99.82;100670.00;5068169;28;20203;-75
2021/01/06 08:24:29;;;;;;;3.73;1.00;;;2.60;99.90;;;3.18;99.89;100669.06;5075582;28;20245;-75
2021/01/06 08:26:59;;;;;;;3.40;1.00;;;2.60;99.90;;;3.21;100.00;100660.44;5064112;28;20676;-75
2021/01/06 08:29:27;;;;;;;2.57;0.90;;;2.70;99.90;;;3.16;99.60;100667.38;5063715;28;20258;-75
2021/01/06 08:31:58;;;;;;;3.77;1.07;;;2.70;99.90;;;3.16;99.86;100667.38;5071364;28;20216;-75
2021/01/06 08:34:32;;;;;;;2.83;0.90;;;2.70;99.90;;;3.16;99.82;100669.94;5072829;28;20207;-74
2021/01/06 08:37:04;;;;;;;5.70;1.57;;;2.70;99.90;;;3.14;99.69;100675.13;5071317;28;20202;-74
2021/01/06 08:39:36;;;;;;;5.00;1.30;;;2.70;99.90;;;3.13;99.79;100675.16;5070909;28;20236;-76
2021/01/06 08:42:18;;;;;;;3.13;1.00;;;2.70;99.90;;;3.13;99.63;100682.91;5083037;28;20239;-74
2021/01/06 08:44:49;;;;;;;2.90;1.00;;;2.70;99.90;;;3.15;99.83;100683.75;5071923;28;20188;-76
2021/01/06 08:47:33;;;;;;;10.20;3.07;;;2.70;99.90;;;3.17;100.00;100682.88;5073834;28;20196;-76
2021/01/06 08:50:31;;;;;;;3.93;1.10;;;2.70;99.90;;;3.20;100.00;100676.81;5071703;28;20199;-77
2021/01/06 08:53:01;;;;;;;4.60;1.00;;;2.70;99.90;;;3.17;99.62;100674.25;5077319;28;20216;-74
2021/01/06 08:55:33;;;;;;;2.63;0.90;;;2.70;99.90;;;3.16;99.77;100676.00;5070045;28;20271;-74
2021/01/06 08:58:04;;;;;;;3.10;0.83;;;2.70;99.90;;;3.18;99.84;100686.31;5071908;28;20196;-72
2021/01/06 09:00:36;;;;;;;2.03;0.90;;;2.70;99.90;;;3.16;99.76;100686.31;5072910;28;20207;-73
2021/01/06 09:03:25;;;;;;;2.23;0.90;;;2.70;99.90;;;3.18;99.87;100694.91;5072119;28;20212;-73
2021/01/06 09:06:14;;;;;;;2.90;0.97;;;2.70;99.90;;;3.22;99.99;100687.97;5069495;28;20192;-74
2021/01/06 09:08:51;;;;;;;2.27;1.07;;;2.70;99.90;;;3.29;100.00;100689.66;5065955;28;20282;-72
2021/01/06 09:11:24;;;;;;;3.77;0.87;;;2.80;99.90;;;3.32;99.92;100697.38;5066015;28;20200;-74
2021/01/06 09:14:02;;;;;;;3.10;0.90;;;2.80;99.90;;;3.26;99.91;100687.97;5071694;28;20232;-74
2021/01/06 09:16:40;;;;;;;3.13;1.13;;;2.80;99.90;;;3.23;99.92;100687.13;5072670;28;20199;-73
2021/01/06 09:19:19;;;;;;;2.90;0.77;;;2.80;99.90;;;3.25;99.83;100687.97;5058198;28;20214;-74
2021/01/06 09:21:47;;;;;;;2.67;1.00;;;2.80;99.90;;;3.26;100.00;100687.09;5065339;28;20230;-74
2021/01/06 09:24:23;;;;;;;2.20;1.00;;;2.80;99.90;;;3.33;99.94;100691.34;5066404;28;20196;-74
2021/01/06 09:26:56;;;;;;;3.83;1.10;;;2.80;99.90;;;3.34;100.00;100691.34;5082158;28;20188;-73
2021/01/06 09:29:26;;;;;;;4.30;1.00;;;2.80;99.90;;;3.36;99.86;100686.16;5075598;28;20204;-76
2021/01/06 09:31:56;;;;;;;4.83;1.13;;;2.80;99.90;;;3.41;99.92;100694.72;5057890;28;20223;-75
2021/01/06 09:34:28;;;;;;;4.40;1.20;;;2.90;99.90;;;3.41;99.79;100695.59;5069234;28;20219;-77
2021/01/06 09:36:57;;;;;;;5.00;1.10;;;2.90;99.90;;;3.40;99.83;100688.69;5071206;28;20196;-74
2021/01/06 09:39:29;;;;;;;2.67;1.00;;;2.90;99.90;;;3.40;99.72;100688.69;5063693;28;20196;-74
2021/01/06 09:41:59;;;;;;;6.60;1.40;;;2.90;99.90;;;3.40;99.72;100680.91;5060921;28;20208;-74
2021/01/06 09:44:29;;;;;;;2.77;1.00;;;2.90;99.90;;;3.47;100.00;100685.16;5068817;28;20196;-76
2021/01/06 09:47:05;;;;;;;6.70;1.67;;;3.00;99.90;;;3.57;99.97;100685.94;5072104;28;20223;-75
2021/01/06 09:49:38;;;;;;;6.07;1.70;;;3.00;99.90;;;3.65;100.00;100678.97;5070836;28;20754;-74
2021/01/06 09:52:15;;;;;;;6.27;1.60;;;3.10;99.90;;;3.73;99.96;100679.75;5075242;28;20262;-75
2021/01/06 09:54:42;;;;;;;7.17;1.57;;;3.20;99.90;;;3.87;100.00;100679.59;5075399;28;20614;-75
2021/01/06 09:57:14;;;;;;;5.97;1.60;;;3.30;99.90;;;3.93;99.90;100675.22;5074787;28;20188;-75
2021/01/06 09:59:42;;;;;;;3.00;1.20;;;3.40;99.90;;;3.96;99.85;100675.16;5073108;28;20192;-74
2021/01/06 10:02:20;;;;;;;5.47;1.40;;;3.50;99.90;;;3.99;99.77;100666.50;5073797;28;20208;-74
2021/01/06 10:04:49;;;;;;;4.80;1.27;;;3.50;99.90;;;4.03;99.61;100676.81;5075076;28;20380;-74
2021/01/06 10:07:35;;;;;;;5.70;1.55;;;3.50;99.90;;;4.05;99.76;100669.91;5075856;28;20692;-75
2021/01/06 10:10:12;;;;;;;4.13;1.20;;;3.50;99.90;;;4.11;99.82;100666.34;5059086;28;20192;-76
2021/01/06 10:12:57;;;;;;;4.90;1.60;;;3.60;99.90;;;4.15;99.98;100671.50;5069734;28;20295;-75
2021/01/06 10:15:51;;;;;;;9.98;2.70;;;3.60;99.90;;;4.18;99.80;100657.63;5074400;28;20287;-75
2021/01/06 10:18:33;;;;;;;14.48;6.03;;;3.70;99.90;;;4.13;99.72;100656.84;5068764;28;20192;-75
2021/01/06 10:21:12;;;;;;;19.53;6.00;;;3.60;99.90;;;4.13;99.55;100656.84;5068926;28;20195;-76
2021/01/06 10:23:55;;;;;;;6.00;1.77;;;3.60;99.90;;;4.19;99.80;100655.03;5064980;28;20207;-73
2021/01/06 10:26:49;;;;;;;9.48;2.67;;;3.70;99.90;;;4.26;99.69;100648.91;5063573;28;20529;-74
2021/01/06 10:29:21;;;;;;;8.73;2.73;;;3.70;99.90;;;4.27;99.67;100640.25;5056820;28;20200;-73
2021/01/06 10:32:20;;;;;;;9.18;2.42;;;3.70;99.90;;;4.21;99.46;100637.75;5062590;28;20695;-74
2021/01/06 10:34:51;;;;;;;5.10;2.00;;;3.70;99.90;;;4.21;99.33;100634.28;5063281;28;20192;-73
2021/01/06 10:37:24;;;;;;;10.20;3.28;;;3.70;99.90;;;4.15;99.15;100635.25;5067302;28;20196;-74
2021/01/06 10:39:54;;;;;;;9.83;3.90;;;3.60;99.90;;;4.17;99.41;100638.66;5061074;28;20647;-73
2021/01/06 10:42:36;;;;;;;7.03;1.90;;;3.60;99.90;;;4.20;99.64;100643.81;5062728;28;20208;-76
2021/01/06 10:45:12;;;;;;;16.58;4.28;;;3.70;99.90;;;4.16;99.57;100636.09;5068853;28;20240;-73
2021/01/06 10:47:46;;;;;;;8.07;2.15;;;3.60;99.90;;;4.16;99.49;100630.91;5068005;28;20198;-74
2021/01/06 10:50:45;;;;;;;5.30;1.88;;;3.60;99.90;;;4.13;99.38;100630.94;5058363;28;20210;-75
2021/01/06 10:53:25;;;;;;;18.27;6.97;;;3.60;99.90;;;4.17;99.29;100623.13;5058263;28;20259;-74
2021/01/06 10:56:03;;;;;;;8.20;2.40;;;3.60;99.90;;;4.22;99.56;100618.72;5062289;28;20283;-75
2021/01/06 10:58:44;;;;;;;10.60;3.75;;;3.60;99.90;;;4.29;99.75;100614.31;5061844;28;20266;-73